KNQA/NQA METAR and TAF weather

Enter ICAO airport designator
Station Type Date Time Source
KNQA METAR 2023/01/30 00:02 UTC NOAA

KNQA 300002Z 04005KT 2 1/2SM BR OVC003 11/11 A3008


Station Type Date Time Source
KNQA Decoded METAR 2023/01/30 00:02 UTC NOAA

Millington, Millington Municipal Airport, TN, United States (KNQA) 35-21-24N 089-52-13W
Jan 29, 2023 - 07:02 PM EST / 2023.01.30 0002 UTC
Wind: from the NE (040 degrees) at 6 MPH (5 KT):0
Visibility: 2 1/2 mile(s):0
Sky conditions: overcast
Weather: mist
Temperature: 51 F (11 C)
Dew Point: 51 F (11 C)
Relative Humidity: 100%
Pressure (altimeter): 30.08 in. Hg (1018 hPa)
ob: KNQA 300002Z 04005KT 2 1/2SM BR OVC003 11/11 A3008
cycle: 0

Station Type Date Time Source
KNQA TAF UTC NOAA

Error!

Example: see airport list